Decoded Metar for KMAO (MARION in SC, USA) (IATA:MAO) | Meteo·Mobile Aviation Weather
aviador You're here:

KMAO Decoded Metar

MARION in SC, USA
Report Time2019-07-16 10:15:00
UTC Time2019-07-16 10:30:16
Flight Rules vfr VFR
WindCalm
Visibility9999 m
Phenomena:N/A
Clouds:N/A
CeilingNone
Temp23°C (ISA +8)
Dew Point23°C (100% RH)
QNH1019 hPa
Density Alt1,211 ft
Elevation92 ft
Report Wrong Elevation
Raw Report
METAR KMAO 161015Z AUTO 00000KT 10SM CLR 23/23 A3009 RMK AO2=

Extra information for KMAO:More info

Metar Taf Metar & Taf Last 4 Metars F.Rules Stats Wind Profile Meteogram Temp Stats Airport Information Weather charts Add Link Nearby VenuesMetar ALERT Operation Metar Decoded Social comments

AIRNAV info for KMAO